Terminal Aerodrome Forecast
Issued by NWS North Platte, NE

Home | Current Version | Previous Version | Graphics & Text | Print | Product List | Glossary On
Versions: 1 2 3 4 5 6 7 8 9 10 11 12 13 14 15
398
FTUS43 KLBF 022320
TAFVTN
TAF
KVTN 022320Z 0300/0324 36016G23KT 5SM -SN BLSN OVC013
     FM030300 35015KT P6SM -SN OVC015
     FM030600 33013KT P6SM OVC035
     FM031500 29006KT P6SM OVC050=

USA.gov is the U.S. government's official web portal to all federal, state and local government web resources and services.